^^
Grace C. Lehan Memorial Weather Station Historical Data
Daily Summary for April 20, 2021 Units:  Metric    English   Both
Daily Weekly Monthly Yearly
  High: Low: Average:
Temperature: 27.7 °C 11.5 °C 19.7 °C
Dew Point: 12.4 °C 8.1 °C 10 °C
Humidity: 87.7% 32.2% 57%
Wind Speed: 3.1km/h 0km/h 0.3km/h
Wind Gust: 14.5km/h - -
Wind- - SSW
Pressure: 1032.1 hPa 1027 hPa -
Precipitation: 0 mm    
 
 
Tabular Data for April 20, 2021
Time Temperature Dew Point Pressure Wind Wind Speed Wind Gust Humidity Rainfall Rate (Hourly) solar
00:04 16 °C 8.9 °C 1027 hPa Calm     63% 0 mm 0 W/m2
00:09 16 °C 9 °C 1027 hPa Calm     63.2% 0 mm 0 W/m2
00:14 15.9 °C 8.9 °C 1027 hPa Calm     63.1% 0 mm 0 W/m2
00:19 15.9 °C 9.1 °C 1027.3 hPa Calm     63.8% 0 mm 0 W/m2
00:24 15.9 °C 9.2 °C 1027.3 hPa Calm     64.4% 0 mm 0 W/m2
00:29 15.8 °C 9 °C 1027.3 hPa Calm     64% 0 mm 0 W/m2
00:34 15.7 °C 9 °C 1027.3 hPa Calm     64.4% 0 mm 0 W/m2
00:39 15.6 °C 9.2 °C 1027.3 hPa Calm     65.4% 0 mm 0 W/m2
00:44 15.5 °C 9.2 °C 1027.3 hPa Calm     66% 0 mm 0 W/m2
00:49 15.4 °C 9.1 °C 1027.7 hPa Calm     66% 0 mm 0 W/m2
00:54 15.4 °C 9.3 °C 1027.7 hPa Calm     67% 0 mm 0 W/m2
00:59 15.3 °C 9.3 °C 1027.7 hPa Calm     67.6% 0 mm 0 W/m2
01:04 15.2 °C 9.3 °C 1027.7 hPa Calm     68% 0 mm 0 W/m2
01:09 15.1 °C 9.3 °C 1027.7 hPa Calm     68.1% 0 mm 0 W/m2
01:14 15.1 °C 9.4 °C 1028 hPa Calm     69% 0 mm 0 W/m2
01:19 15 °C 9.4 °C 1028 hPa Calm     69.5% 0 mm 0 W/m2
01:24 14.9 °C 9.5 °C 1028 hPa Calm     70% 0 mm 0 W/m2
01:29 14.8 °C 9.4 °C 1028 hPa Calm     70% 0 mm 0 W/m2
01:34 14.8 °C 9.4 °C 1028 hPa Calm     70.3% 0 mm 0 W/m2
01:39 14.7 °C 9.5 °C 1027.7 hPa Calm     71% 0 mm 0 W/m2
01:44 14.6 °C 9.4 °C 1028 hPa Calm     71% 0 mm 0 W/m2
01:49 14.6 °C 9.4 °C 1028 hPa Calm     71% 0 mm 0 W/m2
01:54 14.6 °C 9.4 °C 1028 hPa Calm     71.3% 0 mm 0 W/m2
01:59 14.4 °C 9.5 °C 1028 hPa Calm     72% 0 mm 0 W/m2
02:04 14.4 °C 9.4 °C 1028 hPa Calm     72% 0 mm 0 W/m2
02:09 14.3 °C 9.3 °C 1028 hPa Calm     72% 0 mm 0 W/m2
02:14 14.3 °C 9.4 °C 1028 hPa Calm     72.8% 0 mm 0 W/m2
02:19 14.2 °C 9.3 °C 1028 hPa Calm     72.3% 0 mm 0 W/m2
02:24 14.2 °C 9.3 °C 1028 hPa Calm     72.9% 0 mm 0 W/m2
02:29 14.1 °C 9.3 °C 1028 hPa Calm     73% 0 mm 0 W/m2
02:34 14 °C 9.2 °C 1028.3 hPa Calm     73% 0 mm 0 W/m2
02:39 13.9 °C 9.3 °C 1028.3 hPa Calm     73.6% 0 mm 0 W/m2
02:44 13.8 °C 9.2 °C 1028.3 hPa Calm     73.3% 0 mm 0 W/m2
02:49 13.8 °C 9.2 °C 1028.3 hPa Calm     74% 0 mm 0 W/m2
02:54 13.7 °C 9.2 °C 1028 hPa Calm     74.5% 0 mm 0 W/m2
02:59 13.6 °C 9.3 °C 1028.3 hPa Calm     75% 0 mm 0 W/m2
03:04 13.5 °C 9.2 °C 1028.3 hPa Calm     75% 0 mm 0 W/m2
03:09 13.4 °C 9.1 °C 1028.3 hPa Calm     75% 0 mm 0 W/m2
03:14 13.3 °C 9 °C 1028.3 hPa Calm     75% 0 mm 0 W/m2
03:19 13.3 °C 8.9 °C 1028.3 hPa Calm     75% 0 mm 0 W/m2
03:24 13.2 °C 8.9 °C 1028 hPa Calm     75.2% 0 mm 0 W/m2
03:29 13.2 °C 9.1 °C 1028 hPa Calm     76.2% 0 mm 0 W/m2
03:34 13.1 °C 9.2 °C 1028 hPa Calm     77.2% 0 mm 0 W/m2
03:39 12.9 °C 9.2 °C 1028 hPa Calm     78% 0 mm 0 W/m2
03:44 12.8 °C 9.1 °C 1028.3 hPa Calm     78% 0 mm 0 W/m2
03:49 12.7 °C 9.1 °C 1028.3 hPa Calm     79% 0 mm 0 W/m2
03:54 12.6 °C 9.1 °C 1028.7 hPa Calm     79% 0 mm 0 W/m2
03:59 12.5 °C 9 °C 1028.7 hPa Calm     79.4% 0 mm 0 W/m2
04:04 12.4 °C 9.1 °C 1028.7 hPa Calm     80% 0 mm 0 W/m2
04:09 12.3 °C 9.1 °C 1028.7 hPa Calm     80.5% 0 mm 0 W/m2
04:14 12.3 °C 9.1 °C 1028.7 hPa Calm     81% 0 mm 0 W/m2
04:19 12.2 °C 9.1 °C 1028.7 hPa Calm     81% 0 mm 0 W/m2
04:24 12.2 °C 9 °C 1029 hPa Calm     81% 0 mm 0 W/m2
04:29 12.1 °C 9.1 °C 1029 hPa Calm     81.8% 0 mm 0 W/m2
04:34 12.1 °C 9.1 °C 1029 hPa Calm     82% 0 mm 0 W/m2
04:39 12 °C 9.1 °C 1029 hPa Calm     82% 0 mm 0 W/m2
04:44 11.9 °C 9 °C 1029 hPa Calm     82.2% 0 mm 0 W/m2
04:49 11.8 °C 9.1 °C 1029.3 hPa Calm     82.8% 0 mm 0 W/m2
04:54 11.8 °C 9 °C 1029.3 hPa Calm     83% 0 mm 0 W/m2
04:59 11.7 °C 8.9 °C 1029.3 hPa Calm     83.3% 0 mm 0 W/m2
05:04 11.7 °C 9.1 °C 1029.3 hPa Calm     84% 0 mm 0 W/m2
05:09 11.6 °C 9 °C 1029.3 hPa Calm     84% 0 mm 0 W/m2
05:14 11.6 °C 9.1 °C 1029.7 hPa Calm     84.7% 0 mm 0 W/m2
05:19 11.6 °C 9.1 °C 1029.7 hPa Calm     85% 0 mm 0 W/m2
05:24 11.5 °C 9.1 °C 1029.7 hPa Calm     85% 0 mm 5 W/m2
05:29 11.5 °C 9.1 °C 1029.7 hPa Calm     85% 0 mm 7 W/m2
05:34 11.5 °C 9.1 °C 1029.7 hPa Calm     85% 0 mm 9 W/m2
05:39 11.5 °C 9.1 °C 1029.7 hPa Calm     85.1% 0 mm 12 W/m2
05:44 11.5 °C 9.2 °C 1029.7 hPa Calm     86% 0 mm 16 W/m2
05:49 11.5 °C 9.2 °C 1029.7 hPa Calm     86% 0 mm 19 W/m2
05:54 11.5 °C 9.2 °C 1029.7 hPa Calm     86% 0 mm 26 W/m2
05:59 11.5 °C 9.2 °C 1029.7 hPa Calm     86% 0 mm 32 W/m2
06:04 11.5 °C 9.2 °C 1029.7 hPa Calm     86% 0 mm 33 W/m2
06:09 11.5 °C 9.2 °C 1030 hPa Calm     86% 0 mm 33 W/m2
06:14 11.6 °C 9.3 °C 1030 hPa Calm     86.4% 0 mm 35 W/m2
06:19 11.6 °C 9.5 °C 1030 hPa Calm     87% 0 mm 39 W/m2
06:24 11.7 °C 9.6 °C 1030 hPa Calm     87% 0 mm 49 W/m2
06:29 11.7 °C 9.7 °C 1030 hPa Calm     87% 0 mm 56 W/m2
06:34 11.9 °C 9.8 °C 1030 hPa Calm     87.1% 0 mm 69 W/m2
06:39 12.1 °C 10.2 °C 1030.4 hPa Calm     87.7% 0 mm 76 W/m2
06:44 12.4 °C 10.3 °C 1030.4 hPa Calm     87% 0 mm 77 W/m2
06:49 12.7 °C 10.6 °C 1030.4 hPa Calm     86.8% 0 mm 77 W/m2
06:54 13.1 °C 10.7 °C 1030.4 hPa Calm     85.6% 0 mm 91 W/m2
06:59 13.3 °C 10.8 °C 1030.7 hPa Calm     84.7% 0 mm 91 W/m2
07:04 13.6 °C 10.8 °C 1030.7 hPa Calm     83.4% 0 mm 81 W/m2
07:09 13.8 °C 10.8 °C 1030.7 hPa Calm     82.3% 0 mm 144 W/m2
07:14 14 °C 11 °C 1030.7 hPa Calm     82% 0 mm 221 W/m2
07:19 14.3 °C 11.3 °C 1030.7 hPa Calm     81.9% 0 mm 255 W/m2
07:24 14.8 °C 11.5 °C 1030.7 hPa Calm     80.8% 0 mm 264 W/m2
07:29 15.2 °C 11.5 °C 1030.7 hPa Calm     78.6% 0 mm 283 W/m2
07:34 15.7 °C 11.6 °C 1031 hPa Calm     76.9% 0 mm 316 W/m2
07:39 16.2 °C 11.6 °C 1031 hPa Calm     74.6% 0 mm 332 W/m2
07:44 16.7 °C 11.6 °C 1031 hPa Calm     72% 0 mm 348 W/m2
07:49 17 °C 11.8 °C 1031 hPa Calm     71.5% 0 mm 366 W/m2
07:54 17.4 °C 12 °C 1031 hPa Calm     70.7% 0 mm 385 W/m2
07:59 17.7 °C 12.1 °C 1031 hPa Calm     69.8% 0 mm 399 W/m2
08:09 18.3 °C 12.3 °C 1031 hPa Calm     68% 0 mm 438 W/m2
08:14 18.6 °C 12.2 °C 1031 hPa Calm     66.1% 0 mm 450 W/m2
08:19 18.8 °C 11.9 °C 1031 hPa Calm     63.9% 0 mm 464 W/m2
08:24 19.1 °C 12.3 °C 1031 hPa Calm     64.9% 0 mm 476 W/m2
08:29 19.5 °C 11.9 °C 1031 hPa Calm     61.7% 0 mm 496 W/m2
08:34 19.8 °C 12.3 °C 1031 hPa Calm     61.9% 0 mm 512 W/m2
08:39 20 °C 12.3 °C 1031 hPa Calm     61.2% 0 mm 533 W/m2
08:44 20.4 °C 12.2 °C 1031 hPa South 0.2 km/h 3.2 km/h 59.3% 0 mm 541 W/m2
08:49 20.7 °C 12.3 °C 1031 hPa Calm   3.2 km/h 58.5% 0 mm 554 W/m2
08:54 21.1 °C 12.2 °C 1030.7 hPa Calm   3.2 km/h 56.8% 0 mm 568 W/m2
08:59 21.4 °C 11.9 °C 1031 hPa Calm   3.2 km/h 54.6% 0 mm 580 W/m2
09:04 21.7 °C 11.9 °C 1031 hPa Calm   3.2 km/h 53.9% 0 mm 591 W/m2
09:09 21.8 °C 11.7 °C 1031 hPa Calm     52.5% 0 mm 608 W/m2
09:14 22.1 °C 11.8 °C 1031 hPa Calm     52.4% 0 mm 624 W/m2
09:19 22.2 °C 12.4 °C 1031 hPa Calm     53.9% 0 mm 638 W/m2
09:24 22.3 °C 11.7 °C 1031 hPa Calm   1.6 km/h 50.8% 0 mm 656 W/m2
09:29 22.4 °C 11.3 °C 1031 hPa Calm   1.6 km/h 49.6% 0 mm 664 W/m2
09:34 22.6 °C 11.6 °C 1031 hPa Calm   1.6 km/h 50% 0 mm 682 W/m2
09:39 22.8 °C 11.1 °C 1031 hPa Calm     47.4% 0 mm 694 W/m2
09:44 22.9 °C 10.8 °C 1031 hPa Calm     46.2% 0 mm 705 W/m2
09:49 23.1 °C 11.5 °C 1031 hPa Calm     48% 0 mm 715 W/m2
09:54 23.4 °C 10.9 °C 1031 hPa Calm     45.2% 0 mm 737 W/m2
09:59 23.6 °C 10.6 °C 1031 hPa Calm   1.6 km/h 43.8% 0 mm 751 W/m2
10:04 23.7 °C 10.4 °C 1031 hPa Calm   1.6 km/h 42.9% 0 mm 763 W/m2
10:09 23.7 °C 10.4 °C 1031 hPa Calm     43% 0 mm 770 W/m2
10:14 23.8 °C 10.5 °C 1031 hPa Calm     42.8% 0 mm 775 W/m2
10:19 24.1 °C 10.1 °C 1031 hPa Calm   3.2 km/h 41.2% 0 mm 789 W/m2
10:24 24.4 °C 9.7 °C 1031 hPa South 0.2 km/h 3.2 km/h 39.5% 0 mm 793 W/m2
10:29 24.6 °C 9.2 °C 1031 hPa South 0.2 km/h 4.8 km/h 37.9% 0 mm 809 W/m2
10:34 24.7 °C 9.5 °C 1031 hPa South 0.2 km/h 4.8 km/h 38.2% 0 mm 807 W/m2
10:39 24.8 °C 8.9 °C 1031 hPa Calm   3.2 km/h 36.5% 0 mm 816 W/m2
10:44 24.6 °C 8.6 °C 1031 hPa Calm   3.2 km/h 36.1% 0 mm 842 W/m2
10:49 24.6 °C 9.8 °C 1031 hPa Calm   3.2 km/h 39.1% 0 mm 849 W/m2
10:54 24.9 °C 9.6 °C 1030.7 hPa Calm   3.2 km/h 38% 0 mm 858 W/m2
10:59 25.1 °C 9.6 °C 1030.7 hPa Calm   3.2 km/h 37.6% 0 mm 865 W/m2
11:04 25.3 °C 9.4 °C 1030.7 hPa South 0.3 km/h 3.2 km/h 36.8% 0 mm 875 W/m2
11:09 25.3 °C 8.9 °C 1030.7 hPa Calm   3.2 km/h 35.2% 0 mm 879 W/m2
11:14 25.1 °C 8.1 °C 1030.7 hPa Calm   3.2 km/h 33.9% 0 mm 884 W/m2
11:19 25.1 °C 8.7 °C 1030.7 hPa South 0.2 km/h 3.2 km/h 35.3% 0 mm 882 W/m2
11:24 25.1 °C 9.4 °C 1030.7 hPa Calm   3.2 km/h 37.1% 0 mm 895 W/m2
11:29 25.2 °C 8.9 °C 1030.7 hPa South 0.6 km/h 4.8 km/h 35.6% 0 mm 898 W/m2
11:34 25.2 °C 9.3 °C 1030.7 hPa SSE 0.2 km/h 4.8 km/h 36.6% 0 mm 905 W/m2
11:39 25.2 °C 9.2 °C 1030.7 hPa Calm   3.2 km/h 36.2% 0 mm 916 W/m2
11:44 25.6 °C 9.8 °C 1030.7 hPa Calm   3.2 km/h 37% 0 mm 889 W/m2
11:49 25.8 °C 9.9 °C 1030.7 hPa Calm   3.2 km/h 36.8% 0 mm 914 W/m2
11:54 25.9 °C 9.6 °C 1030.7 hPa Calm   3.2 km/h 35.7% 0 mm 921 W/m2
11:59 26.1 °C 10.3 °C 1030.7 hPa Calm   3.2 km/h 37% 0 mm 925 W/m2
12:09 26.3 °C 9.9 °C 1030.7 hPa SW 2.6 km/h 9.7 km/h 35.7% 0 mm 905 W/m2
12:14 26.4 °C 9.6 °C 1030.7 hPa Calm   9.7 km/h 34.6% 0 mm 942 W/m2
12:19 26.6 °C 10.3 °C 1030.7 hPa West 0.3 km/h 9.7 km/h 36% 0 mm 993 W/m2
12:24 26.7 °C 10.4 °C 1030.7 hPa West 0.6 km/h 9.7 km/h 36.1% 0 mm 988 W/m2
12:29 26.7 °C 9 °C 1030.7 hPa West 0.2 km/h 9.7 km/h 32.7% 0 mm 810 W/m2
12:34 26.5 °C 9 °C 1030.7 hPa Calm   9.7 km/h 33.1% 0 mm 875 W/m2
12:39 26.3 °C 9 °C 1030.7 hPa Calm   1.6 km/h 33.5% 0 mm 777 W/m2
12:44 26.2 °C 9.4 °C 1030.4 hPa Calm   1.6 km/h 34.8% 0 mm 759 W/m2
12:49 26 °C 9.2 °C 1030.4 hPa Calm   1.6 km/h 34.5% 0 mm 947 W/m2
12:54 25.9 °C 9.4 °C 1030.4 hPa West 0.8 km/h 6.4 km/h 35.2% 0 mm 1030 W/m2
12:59 26 °C 9.4 °C 1030.4 hPa West 0.3 km/h 6.4 km/h 35.3% 0 mm 1030 W/m2
13:04 26 °C 9.8 °C 1030.4 hPa Calm   6.4 km/h 36% 0 mm 1011 W/m2
13:09 26.2 °C 10.1 °C 1030.4 hPa West 0.2 km/h 3.2 km/h 36.4% 0 mm 1004 W/m2
13:14 26.4 °C 10.2 °C 1030.7 hPa WSW 0.6 km/h 9.7 km/h 36.2% 0 mm 995 W/m2
13:19 26.5 °C 10.1 °C 1030.4 hPa WSW 0.6 km/h 9.7 km/h 35.6% 0 mm 1000 W/m2
13:24 26.6 °C 9.7 °C 1030.4 hPa WSW 0.3 km/h 9.7 km/h 34.4% 0 mm 977 W/m2
13:29 26.7 °C 9.8 °C 1030.4 hPa WSW 0.3 km/h 9.7 km/h 34.7% 0 mm 974 W/m2
13:34 26.7 °C 9.7 °C 1030.4 hPa WSW 0.3 km/h 9.7 km/h 34.3% 0 mm 953 W/m2
13:39 26.6 °C 9.4 °C 1030.4 hPa WSW 0.2 km/h 3.2 km/h 33.8% 0 mm 942 W/m2
13:44 26.7 °C 9.9 °C 1030.4 hPa WSW 0.3 km/h 4.8 km/h 35% 0 mm 932 W/m2
13:49 26.8 °C 9.8 °C 1030.4 hPa WSW 0.5 km/h 4.8 km/h 34.3% 0 mm 925 W/m2
13:54 26.8 °C 9.7 °C 1030.4 hPa SW 0.6 km/h 4.8 km/h 34% 0 mm 921 W/m2
13:59 26.8 °C 10.1 °C 1030.4 hPa Calm   4.8 km/h 34.9% 0 mm 916 W/m2
14:04 26.9 °C 10.1 °C 1030.4 hPa SW 0.3 km/h 4.8 km/h 34.7% 0 mm 914 W/m2
14:09 27.1 °C 10.9 °C 1030.4 hPa SW 2.4 km/h 8 km/h 36.6% 0 mm 902 W/m2
14:14 27.3 °C 10.9 °C 1030.4 hPa SW 0.6 km/h 8 km/h 35.8% 0 mm 898 W/m2
14:19 27.4 °C 10.3 °C 1030 hPa Calm   8 km/h 34.4% 0 mm 893 W/m2
14:24 27.4 °C 10.9 °C 1030 hPa SW 1.6 km/h 8 km/h 35.6% 0 mm 886 W/m2
14:29 27.6 °C 11.3 °C 1030 hPa SW 1.6 km/h 8 km/h 36.5% 0 mm 879 W/m2
14:34 27.7 °C 10.9 °C 1030 hPa SW 1.1 km/h 8 km/h 35.2% 0 mm 870 W/m2
14:39 27.7 °C 11.2 °C 1030 hPa SW 0.6 km/h 6.4 km/h 35.7% 0 mm 863 W/m2
14:44 27.7 °C 10.9 °C 1030 hPa SW 1.3 km/h 6.4 km/h 35.2% 0 mm 854 W/m2
14:49 27.6 °C 10.3 °C 1030 hPa SW 1.4 km/h 9.7 km/h 33.9% 0 mm 847 W/m2
14:54 27.4 °C 9.8 °C 1030 hPa SW 0.3 km/h 9.7 km/h 33.3% 0 mm 837 W/m2
14:59 27.2 °C 10.5 °C 1030 hPa SW 0.8 km/h 9.7 km/h 35.1% 0 mm 826 W/m2
15:04 27.2 °C 10.3 °C 1030 hPa SW 1.1 km/h 9.7 km/h 34.7% 0 mm 819 W/m2
15:09 27.1 °C 10.1 °C 1029.7 hPa SW 0.6 km/h 4.8 km/h 34.5% 0 mm 812 W/m2
15:14 27.2 °C 10.5 °C 1029.7 hPa SW 2.4 km/h 6.4 km/h 35.2% 0 mm 802 W/m2
15:19 27.3 °C 10.1 °C 1029.7 hPa SW 1.6 km/h 6.4 km/h 34% 0 mm 788 W/m2
15:24 27.2 °C 9.4 °C 1029.7 hPa SSW 1 km/h 6.4 km/h 32.8% 0 mm 780 W/m2
15:29 27.2 °C 9.8 °C 1029.7 hPa SW 2.3 km/h 6.4 km/h 33.7% 0 mm 768 W/m2
15:34 27.2 °C 10.1 °C 1029.7 hPa SW 2.3 km/h 8 km/h 34.2% 0 mm 758 W/m2
15:39 27.3 °C 9.9 °C 1029.7 hPa SSW 1.1 km/h 8 km/h 33.6% 0 mm 745 W/m2
15:44 27.3 °C 10.2 °C 1029.7 hPa SSW 0.8 km/h 8 km/h 34.3% 0 mm 729 W/m2
15:49 27.3 °C 9.2 °C 1029.7 hPa SSW 0.5 km/h 8 km/h 32.2% 0 mm 721 W/m2
15:54 27.1 °C 9.2 °C 1029.3 hPa SSW 1 km/h 8 km/h 32.5% 0 mm 708 W/m2
15:59 26.9 °C 9.9 °C 1029.7 hPa SSW 1.1 km/h 8 km/h 34.4% 0 mm 693 W/m2
16:00 26.9 °C 10.2 °C 1029.3 hPa SSW 1.6 km/h 8 km/h 35% 0 mm 679 W/m2
16:09 26.9 °C 10.1 °C 1029.3 hPa SSW 1.8 km/h 6.4 km/h 34.7% 0 mm 663 W/m2
16:14 26.9 °C 9.8 °C 1029.3 hPa SW 1.3 km/h 8 km/h 34.3% 0 mm 81 W/m2
16:19 26.8 °C 9.8 °C 1029.3 hPa SW 2.3 km/h 14.5 km/h 34.3% 0 mm 77 W/m2
16:24 26.6 °C 9.1 °C 1029.3 hPa SW 1.3 km/h 14.5 km/h 33.2% 0 mm 74 W/m2
16:29 26.3 °C 9.3 °C 1029.7 hPa SW 2.4 km/h 14.5 km/h 34.1% 0 mm 72 W/m2
16:34 26.2 °C 9.5 °C 1029.7 hPa SW 1 km/h 14.5 km/h 35% 0 mm 70 W/m2
16:39 26.1 °C 9.8 °C 1029.7 hPa SW 1.1 km/h 4.8 km/h 36% 0 mm 69 W/m2
16:44 26 °C 9.5 °C 1029.7 hPa SW 0.6 km/h 4.8 km/h 35.2% 0 mm 67 W/m2
16:49 25.9 °C 9.9 °C 1029.7 hPa SW 1.9 km/h 11.3 km/h 36.3% 0 mm 65 W/m2
16:54 25.9 °C 9.8 °C 1029.7 hPa SW 1.4 km/h 11.3 km/h 36.2% 0 mm 63 W/m2
16:59 25.8 °C 9.8 °C 1029.7 hPa SW 0.3 km/h 11.3 km/h 36.5% 0 mm 62 W/m2
17:04 25.7 °C 9.9 °C 1029.7 hPa SW 0.6 km/h 11.3 km/h 36.9% 0 mm 60 W/m2
17:09 25.7 °C 10.1 °C 1029.7 hPa SW 0.6 km/h 8 km/h 37.4% 0 mm 60 W/m2
17:14 25.6 °C 9.7 °C 1029.7 hPa SSW 3.1 km/h 8 km/h 36.7% 0 mm 58 W/m2
17:19 25.4 °C 9.7 °C 1029.7 hPa SSW 1.6 km/h 8 km/h 37% 0 mm 58 W/m2
17:24 25.3 °C 9.8 °C 1029.7 hPa SSW 1.4 km/h 8 km/h 37.5% 0 mm 56 W/m2
17:29 25.2 °C 9.9 °C 1029.7 hPa SSW 2.3 km/h 8 km/h 38.1% 0 mm 54 W/m2
17:34 25.2 °C 10.2 °C 1029.7 hPa SSW 1.3 km/h 8 km/h 38.8% 0 mm 53 W/m2
17:39 25.1 °C 10.3 °C 1029.7 hPa SSW 0.8 km/h 6.4 km/h 39.5% 0 mm 53 W/m2
17:44 25 °C 10.4 °C 1029.7 hPa SSW 0.6 km/h 6.4 km/h 39.7% 0 mm 51 W/m2
17:49 24.9 °C 10.3 °C 1029.7 hPa SSW 0.5 km/h 6.4 km/h 39.6% 0 mm 51 W/m2
17:54 24.8 °C 10.3 °C 1029.7 hPa SSW 0.2 km/h 6.4 km/h 39.9% 0 mm 49 W/m2
17:59 24.6 °C 9.9 °C 1029.7 hPa South 2.9 km/h 8 km/h 39.5% 0 mm 47 W/m2
18:04 24.4 °C 10 °C 1029.7 hPa South 1.4 km/h 11.3 km/h 40% 0 mm 47 W/m2
18:09 24.3 °C 10 °C 1029.7 hPa South 2.3 km/h 12.9 km/h 40.4% 0 mm 46 W/m2
18:14 24.2 °C 10.1 °C 1029.7 hPa SSW 1.3 km/h 12.9 km/h 41% 0 mm 44 W/m2
18:19 24.1 °C 9.9 °C 1029.7 hPa SSW 1.4 km/h 12.9 km/h 40.8% 0 mm 42 W/m2
18:24 23.9 °C 9.7 °C 1029.7 hPa South 1.6 km/h 12.9 km/h 40.3% 0 mm 42 W/m2
18:29 23.8 °C 9.7 °C 1029.7 hPa South 2.1 km/h 12.9 km/h 40.8% 0 mm 40 W/m2
18:34 23.7 °C 9.7 °C 1029.7 hPa SSW 1.4 km/h 12.9 km/h 41.2% 0 mm 39 W/m2
18:39 23.6 °C 9.6 °C 1029.7 hPa SW 0.8 km/h 8 km/h 41% 0 mm 37 W/m2
18:44 23.4 °C 9.3 °C 1029.7 hPa SSW 1.3 km/h 8 km/h 40.9% 0 mm 35 W/m2
18:49 23.2 °C 8.9 °C 1029.7 hPa South 1.8 km/h 9.7 km/h 40.2% 0 mm 33 W/m2
18:54 23.1 °C 9.1 °C 1029.7 hPa South 0.5 km/h 9.7 km/h 41% 0 mm 33 W/m2
18:59 22.9 °C 9.2 °C 1029.7 hPa South 0.2 km/h 9.7 km/h 41.7% 0 mm 32 W/m2
19:04 22.8 °C 9.4 °C 1029.7 hPa South 0.8 km/h 9.7 km/h 42.5% 0 mm 30 W/m2
19:09 22.7 °C 9.3 °C 1029.7 hPa SSW 0.8 km/h 6.4 km/h 42.5% 0 mm 28 W/m2
19:14 22.5 °C 9.6 °C 1029.7 hPa SSW 0.3 km/h 6.4 km/h 43.8% 0 mm 26 W/m2
19:19 22.3 °C 9.4 °C 1029.7 hPa SSW 0.3 km/h 6.4 km/h 43.8% 0 mm 25 W/m2
19:24 22.2 °C 9.6 °C 1030 hPa Calm   6.4 km/h 44.8% 0 mm 23 W/m2
19:29 22 °C 9.4 °C 1030 hPa SW 1 km/h 8 km/h 44.8% 0 mm 21 W/m2
19:34 21.8 °C 9.3 °C 1030 hPa SW 0.6 km/h 8 km/h 44.9% 0 mm 19 W/m2
19:39 21.6 °C 9.2 °C 1030 hPa SSW 0.8 km/h 6.4 km/h 45.4% 0 mm 16 W/m2
19:44 21.3 °C 9.1 °C 1030 hPa SSW 0.6 km/h 6.4 km/h 45.4% 0 mm 12 W/m2
19:49 21.2 °C 9.3 °C 1030 hPa SSW 0.2 km/h 6.4 km/h 46.6% 0 mm 11 W/m2
19:54 21 °C 9.4 °C 1030.4 hPa SSW 0.2 km/h 6.4 km/h 47.4% 0 mm 9 W/m2
19:59 20.8 °C 9.3 °C 1030.4 hPa Calm   6.4 km/h 47.7% 0 mm 5 W/m2
20:00 20.7 °C 9.3 °C 1030 hPa Calm   6.4 km/h 48% 0 mm 0 W/m2
20:09 20.5 °C 9.2 °C 1030.4 hPa Calm   1.6 km/h 48.3% 0 mm 0 W/m2
20:14 20.3 °C 9.2 °C 1030.4 hPa SSW 0.2 km/h 3.2 km/h 48.9% 0 mm 0 W/m2
20:19 20.2 °C 8.9 °C 1030.4 hPa Calm   3.2 km/h 48.3% 0 mm 0 W/m2
20:24 19.9 °C 9.2 °C 1030.4 hPa SSW 0.2 km/h 6.4 km/h 49.9% 0 mm 0 W/m2
20:29 19.7 °C 9.4 °C 1030.7 hPa Calm   6.4 km/h 51.4% 0 mm 0 W/m2
20:34 19.6 °C 9.5 °C 1030.7 hPa SSW 0.2 km/h 6.4 km/h 52.2% 0 mm 0 W/m2
20:39 19.4 °C 9.6 °C 1030.7 hPa Calm   3.2 km/h 53% 0 mm 0 W/m2
20:44 19.2 °C 9.4 °C 1030.7 hPa Calm   3.2 km/h 53% 0 mm 0 W/m2
20:49 19 °C 9.4 °C 1030.7 hPa Calm   3.2 km/h 53.8% 0 mm 0 W/m2
20:54 18.8 °C 9.3 °C 1030.7 hPa Calm   3.2 km/h 53.8% 0 mm 0 W/m2
20:59 18.7 °C 9.3 °C 1031 hPa Calm   3.2 km/h 54.5% 0 mm 0 W/m2
21:04 18.6 °C 9.5 °C 1031 hPa SSW 0.5 km/h 4.8 km/h 55.7% 0 mm 0 W/m2
21:09 18.4 °C 9.7 °C 1031 hPa Calm   4.8 km/h 57% 0 mm 0 W/m2
21:14 18.2 °C 9.8 °C 1031.4 hPa Calm   4.8 km/h 58.1% 0 mm 0 W/m2
21:19 18.1 °C 10.1 °C 1031 hPa Calm   4.8 km/h 59.7% 0 mm 0 W/m2
21:24 17.9 °C 10.4 °C 1031.4 hPa SSW 0.6 km/h 4.8 km/h 61.4% 0 mm 0 W/m2
21:29 17.7 °C 10.7 °C 1031.4 hPa Calm   4.8 km/h 63.2% 0 mm 0 W/m2
21:34 17.6 °C 10.8 °C 1031.4 hPa SSW 0.2 km/h 4.8 km/h 64.4% 0 mm 0 W/m2
21:39 17.4 °C 10.8 °C 1031.4 hPa SSW 0.2 km/h 3.2 km/h 65.1% 0 mm 0 W/m2
21:44 17.3 °C 10.9 °C 1031.4 hPa Calm   3.2 km/h 66.1% 0 mm 0 W/m2
21:49 17.2 °C 11 °C 1031.4 hPa Calm   3.2 km/h 67% 0 mm 0 W/m2
21:54 17.1 °C 11.1 °C 1031.4 hPa SSW 0.2 km/h 3.2 km/h 67.9% 0 mm 0 W/m2
21:59 16.9 °C 11.1 °C 1031.4 hPa SSW 0.3 km/h 4.8 km/h 68.5% 0 mm 0 W/m2
22:04 16.8 °C 11.1 °C 1031.4 hPa SSW 0.3 km/h 4.8 km/h 69% 0 mm 0 W/m2
22:09 16.7 °C 11.2 °C 1031.4 hPa Calm   3.2 km/h 70% 0 mm 0 W/m2
22:14 16.6 °C 11.3 °C 1031.4 hPa Calm   3.2 km/h 70.9% 0 mm 0 W/m2
22:19 16.4 °C 11.2 °C 1031.7 hPa Calm   3.2 km/h 71.2% 0 mm 0 W/m2
22:24 16.3 °C 11.3 °C 1031.7 hPa Calm   3.2 km/h 72% 0 mm 0 W/m2
22:29 16.2 °C 11.3 °C 1031.7 hPa Calm   6.4 km/h 72.8% 0 mm 0 W/m2
22:34 16.1 °C 11.3 °C 1031.7 hPa SSW 0.3 km/h 6.4 km/h 73% 0 mm 0 W/m2
22:39 16 °C 11.4 °C 1031.7 hPa Calm   4.8 km/h 74% 0 mm 0 W/m2
22:44 15.9 °C 11.3 °C 1031.7 hPa Calm   4.8 km/h 74% 0 mm 0 W/m2
22:49 15.8 °C 11.3 °C 1031.7 hPa Calm   4.8 km/h 74.6% 0 mm 0 W/m2
22:54 15.7 °C 11.3 °C 1031.7 hPa Calm   4.8 km/h 75.2% 0 mm 0 W/m2
22:59 15.6 °C 11.3 °C 1031.7 hPa Calm   4.8 km/h 75.8% 0 mm 0 W/m2
23:04 15.4 °C 11.3 °C 1032.1 hPa Calm   4.8 km/h 76.5% 0 mm 0 W/m2
23:09 15.3 °C 11.3 °C 1032.1 hPa Calm     77% 0 mm 0 W/m2
23:14 15.2 °C 11.3 °C 1032.1 hPa Calm     77.4% 0 mm 0 W/m2
23:19 15.1 °C 11.3 °C 1032.1 hPa Calm     78% 0 mm 0 W/m2
23:24 15 °C 11.2 °C 1032.1 hPa Calm     78.2% 0 mm 0 W/m2
23:29 14.9 °C 11.1 °C 1032.1 hPa Calm     78% 0 mm 0 W/m2
23:34 14.8 °C 11.1 °C 1032.1 hPa Calm     78.5% 0 mm 0 W/m2
23:39 14.7 °C 11 °C 1032.1 hPa Calm     78.1% 0 mm 0 W/m2
23:44 14.6 °C 10.8 °C 1032.1 hPa Calm     77.9% 0 mm 0 W/m2
23:49 14.6 °C 10.6 °C 1032.1 hPa Calm     77% 0 mm 0 W/m2
23:54 14.5 °C 10.5 °C 1032.1 hPa Calm     77% 0 mm 0 W/m2
23:59 14.4 °C 10.5 °C 1031.7 hPa Calm     77% 0 mm 0 W/m2
Hartford County Weather
Compliments of Weather Underground - 4 mb